sensor_id;sensor_type;location;lat;lon;timestamp;temperature;humidity
68378;DHT22;55322;48.146;11.516;2023-11-19T00:02:13;4.40;98.19
68378;DHT22;55322;48.146;11.516;2023-11-19T00:04:39;4.36;98.00
68378;DHT22;55322;48.146;11.516;2023-11-19T00:07:05;4.43;98.07
68378;DHT22;55322;48.146;11.516;2023-11-19T00:09:32;4.42;98.04
68378;DHT22;55322;48.146;11.516;2023-11-19T00:11:58;4.36;98.10
68378;DHT22;55322;48.146;11.516;2023-11-19T00:14:25;4.39;98.19
68378;DHT22;55322;48.146;11.516;2023-11-19T00:16:51;4.42;98.31
68378;DHT22;55322;48.146;11.516;2023-11-19T00:19:16;4.40;98.36
68378;DHT22;55322;48.146;11.516;2023-11-19T00:21:42;4.39;98.45
68378;DHT22;55322;48.146;11.516;2023-11-19T00:24:07;4.39;98.58
68378;DHT22;55322;48.146;11.516;2023-11-19T00:26:33;4.46;98.74
68378;DHT22;55322;48.146;11.516;2023-11-19T00:28:59;4.54;98.76
68378;DHT22;55322;48.146;11.516;2023-11-19T00:31:24;4.60;98.75
68378;DHT22;55322;48.146;11.516;2023-11-19T00:33:51;4.64;98.77
68378;DHT22;55322;48.146;11.516;2023-11-19T00:36:16;4.64;98.72
68378;DHT22;55322;48.146;11.516;2023-11-19T00:38:42;4.69;98.80
68378;DHT22;55322;48.146;11.516;2023-11-19T00:41:07;4.73;98.90
68378;DHT22;55322;48.146;11.516;2023-11-19T00:43:32;4.76;98.91
68378;DHT22;55322;48.146;11.516;2023-11-19T00:45:58;4.76;98.88
68378;DHT22;55322;48.146;11.516;2023-11-19T00:48:23;4.81;98.96
68378;DHT22;55322;48.146;11.516;2023-11-19T00:50:49;4.87;98.99
68378;DHT22;55322;48.146;11.516;2023-11-19T00:53:14;4.90;99.03
68378;DHT22;55322;48.146;11.516;2023-11-19T00:55:39;4.90;99.04
68378;DHT22;55322;48.146;11.516;2023-11-19T00:58:05;4.97;99.14
68378;DHT22;55322;48.146;11.516;2023-11-19T01:00:30;5.01;99.17
68378;DHT22;55322;48.146;11.516;2023-11-19T01:02:57;5.07;99.26
68378;DHT22;55322;48.146;11.516;2023-11-19T01:05:22;5.11;99.32
68378;DHT22;55322;48.146;11.516;2023-11-19T01:07:48;5.17;99.37
68378;DHT22;55322;48.146;11.516;2023-11-19T01:10:14;5.20;99.41
68378;DHT22;55322;48.146;11.516;2023-11-19T01:12:41;5.25;99.51
68378;DHT22;55322;48.146;11.516;2023-11-19T01:15:07;5.25;99.39
68378;DHT22;55322;48.146;11.516;2023-11-19T01:17:32;5.30;99.43
68378;DHT22;55322;48.146;11.516;2023-11-19T01:19:58;5.34;99.32
68378;DHT22;55322;48.146;11.516;2023-11-19T01:22:23;5.38;99.37
68378;DHT22;55322;48.146;11.516;2023-11-19T01:24:48;5.37;99.40
68378;DHT22;55322;48.146;11.516;2023-11-19T01:27:14;5.42;99.42
68378;DHT22;55322;48.146;11.516;2023-11-19T01:29:39;5.48;99.49
68378;DHT22;55322;48.146;11.516;2023-11-19T01:32:05;5.48;99.39
68378;DHT22;55322;48.146;11.516;2023-11-19T01:34:30;5.51;99.45
68378;DHT22;55322;48.146;11.516;2023-11-19T01:36:55;5.59;99.45
68378;DHT22;55322;48.146;11.516;2023-11-19T01:39:21;5.59;99.49
68378;DHT22;55322;48.146;11.516;2023-11-19T01:41:47;5.65;99.53
68378;DHT22;55322;48.146;11.516;2023-11-19T01:44:12;5.63;99.56
68378;DHT22;55322;48.146;11.516;2023-11-19T01:46:42;5.73;99.58
68378;DHT22;55322;48.146;11.516;2023-11-19T01:49:09;5.78;99.38
68378;DHT22;55322;48.146;11.516;2023-11-19T01:51:34;5.83;99.39
68378;DHT22;55322;48.146;11.516;2023-11-19T01:54:01;5.80;99.42
68378;DHT22;55322;48.146;11.516;2023-11-19T01:56:27;5.88;99.54
68378;DHT22;55322;48.146;11.516;2023-11-19T01:58:54;5.92;99.60
68378;DHT22;55322;48.146;11.516;2023-11-19T02:01:20;5.99;99.61
68378;DHT22;55322;48.146;11.516;2023-11-19T02:03:46;6.03;99.59
68378;DHT22;55322;48.146;11.516;2023-11-19T02:06:12;6.06;99.55
68378;DHT22;55322;48.146;11.516;2023-11-19T02:08:39;6.07;99.49
68378;DHT22;55322;48.146;11.516;2023-11-19T02:11:04;6.12;99.52
68378;DHT22;55322;48.146;11.516;2023-11-19T02:13:32;6.12;99.44
68378;DHT22;55322;48.146;11.516;2023-11-19T02:15:57;6.13;99.48
68378;DHT22;55322;48.146;11.516;2023-11-19T02:18:24;6.14;99.65
68378;DHT22;55322;48.146;11.516;2023-11-19T02:20:53;6.16;99.80
68378;DHT22;55322;48.146;11.516;2023-11-19T02:23:20;6.20;99.88
68378;DHT22;55322;48.146;11.516;2023-11-19T02:26:02;6.26;99.99
68378;DHT22;55322;48.146;11.516;2023-11-19T02:28:32;6.37;99.99
68378;DHT22;55322;48.146;11.516;2023-11-19T02:30:58;6.48;99.99
68378;DHT22;55322;48.146;11.516;2023-11-19T02:33:23;6.55;99.99
68378;DHT22;55322;48.146;11.516;2023-11-19T02:35:50;6.61;99.99
68378;DHT22;55322;48.146;11.516;2023-11-19T02:38:16;6.73;99.99
68378;DHT22;55322;48.146;11.516;2023-11-19T02:40:41;6.77;99.99
68378;DHT22;55322;48.146;11.516;2023-11-19T02:43:06;6.84;99.99
68378;DHT22;55322;48.146;11.516;2023-11-19T02:45:33;6.94;99.99
68378;DHT22;55322;48.146;11.516;2023-11-19T02:47:59;6.95;99.99
68378;DHT22;55322;48.146;11.516;2023-11-19T02:50:27;7.04;99.99
68378;DHT22;55322;48.146;11.516;2023-11-19T02:52:53;7.09;99.99
68378;DHT22;55322;48.146;11.516;2023-11-19T02:55:21;7.15;99.99
68378;DHT22;55322;48.146;11.516;2023-11-19T02:57:49;7.26;99.99
68378;DHT22;55322;48.146;11.516;2023-11-19T03:00:21;7.29;99.99
68378;DHT22;55322;48.146;11.516;2023-11-19T03:02:57;7.33;99.99
68378;DHT22;55322;48.146;11.516;2023-11-19T03:05:30;7.36;99.99
68378;DHT22;55322;48.146;11.516;2023-11-19T03:07:56;7.42;99.99
68378;DHT22;55322;48.146;11.516;2023-11-19T03:10:22;7.46;99.99
68378;DHT22;55322;48.146;11.516;2023-11-19T03:12:49;7.48;99.99
68378;DHT22;55322;48.146;11.516;2023-11-19T03:15:14;7.50;99.99
68378;DHT22;55322;48.146;11.516;2023-11-19T03:17:40;7.58;99.99
68378;DHT22;55322;48.146;11.516;2023-11-19T03:20:07;7.62;99.99
68378;DHT22;55322;48.146;11.516;2023-11-19T03:22:36;7.69;99.99
68378;DHT22;55322;48.146;11.516;2023-11-19T03:25:01;7.70;99.99
68378;DHT22;55322;48.146;11.516;2023-11-19T03:27:27;7.72;99.99
68378;DHT22;55322;48.146;11.516;2023-11-19T03:29:52;7.74;99.99
68378;DHT22;55322;48.146;11.516;2023-11-19T03:32:17;7.73;99.99
68378;DHT22;55322;48.146;11.516;2023-11-19T03:34:43;7.76;99.99
68378;DHT22;55322;48.146;11.516;2023-11-19T03:37:08;7.82;99.99
68378;DHT22;55322;48.146;11.516;2023-11-19T03:39:34;7.89;99.99
68378;DHT22;55322;48.146;11.516;2023-11-19T03:41:59;7.90;99.99
68378;DHT22;55322;48.146;11.516;2023-11-19T03:44:26;7.98;99.99
68378;DHT22;55322;48.146;11.516;2023-11-19T03:46:52;8.03;99.99
68378;DHT22;55322;48.146;11.516;2023-11-19T03:49:17;8.13;99.99
68378;DHT22;55322;48.146;11.516;2023-11-19T03:51:42;8.20;99.99
68378;DHT22;55322;48.146;11.516;2023-11-19T03:54:08;8.30;99.99
68378;DHT22;55322;48.146;11.516;2023-11-19T03:56:33;8.30;99.99
68378;DHT22;55322;48.146;11.516;2023-11-19T03:58:59;8.42;99.99
68378;DHT22;55322;48.146;11.516;2023-11-19T04:01:24;8.47;99.99
68378;DHT22;55322;48.146;11.516;2023-11-19T04:03:50;8.51;99.99
68378;DHT22;55322;48.146;11.516;2023-11-19T04:06:15;8.55;99.99
68378;DHT22;55322;48.146;11.516;2023-11-19T04:08:40;8.61;99.99
68378;DHT22;55322;48.146;11.516;2023-11-19T04:11:06;8.64;99.99
68378;DHT22;55322;48.146;11.516;2023-11-19T04:13:34;8.65;99.99
68378;DHT22;55322;48.146;11.516;2023-11-19T04:15:59;8.61;99.99
68378;DHT22;55322;48.146;11.516;2023-11-19T04:18:25;8.62;99.99
68378;DHT22;55322;48.146;11.516;2023-11-19T04:20:50;8.71;99.99
68378;DHT22;55322;48.146;11.516;2023-11-19T04:23:16;8.71;99.99
68378;DHT22;55322;48.146;11.516;2023-11-19T04:25:41;8.78;99.99
68378;DHT22;55322;48.146;11.516;2023-11-19T04:28:07;8.80;99.99
68378;DHT22;55322;48.146;11.516;2023-11-19T04:30:33;8.88;99.99
68378;DHT22;55322;48.146;11.516;2023-11-19T04:32:59;8.89;99.99
68378;DHT22;55322;48.146;11.516;2023-11-19T04:35:24;8.89;99.99
68378;DHT22;55322;48.146;11.516;2023-11-19T04:37:50;8.89;99.99
68378;DHT22;55322;48.146;11.516;2023-11-19T04:40:16;8.90;99.99
68378;DHT22;55322;48.146;11.516;2023-11-19T04:42:43;8.86;99.99
68378;DHT22;55322;48.146;11.516;2023-11-19T04:45:09;8.92;99.99
68378;DHT22;55322;48.146;11.516;2023-11-19T04:47:35;8.95;99.99
68378;DHT22;55322;48.146;11.516;2023-11-19T04:50:02;9.02;99.99
68378;DHT22;55322;48.146;11.516;2023-11-19T04:52:28;9.12;99.99
68378;DHT22;55322;48.146;11.516;2023-11-19T04:54:54;9.19;99.99
68378;DHT22;55322;48.146;11.516;2023-11-19T04:57:19;9.23;99.99
68378;DHT22;55322;48.146;11.516;2023-11-19T04:59:44;9.26;99.99
68378;DHT22;55322;48.146;11.516;2023-11-19T05:02:10;9.30;99.99
68378;DHT22;55322;48.146;11.516;2023-11-19T05:04:35;9.32;99.99
68378;DHT22;55322;48.146;11.516;2023-11-19T05:07:03;9.32;99.99
68378;DHT22;55322;48.146;11.516;2023-11-19T05:09:28;9.34;99.99
68378;DHT22;55322;48.146;11.516;2023-11-19T05:11:53;9.33;99.99
68378;DHT22;55322;48.146;11.516;2023-11-19T05:14:19;9.33;99.99
68378;DHT22;55322;48.146;11.516;2023-11-19T05:16:45;9.43;99.99
68378;DHT22;55322;48.146;11.516;2023-11-19T05:19:11;9.44;99.99
68378;DHT22;55322;48.146;11.516;2023-11-19T05:21:36;9.42;99.99
68378;DHT22;55322;48.146;11.516;2023-11-19T05:24:02;9.39;99.99
68378;DHT22;55322;48.146;11.516;2023-11-19T05:26:30;9.39;99.99
68378;DHT22;55322;48.146;11.516;2023-11-19T05:28:55;9.36;99.99
68378;DHT22;55322;48.146;11.516;2023-11-19T05:31:21;9.36;99.99
68378;DHT22;55322;48.146;11.516;2023-11-19T05:33:46;9.37;99.99
68378;DHT22;55322;48.146;11.516;2023-11-19T05:36:12;9.32;99.99
68378;DHT22;55322;48.146;11.516;2023-11-19T05:38:38;9.37;99.99
68378;DHT22;55322;48.146;11.516;2023-11-19T05:41:04;9.39;99.88
68378;DHT22;55322;48.146;11.516;2023-11-19T05:43:32;9.34;99.99
68378;DHT22;55322;48.146;11.516;2023-11-19T05:45:58;9.37;99.88
68378;DHT22;55322;48.146;11.516;2023-11-19T05:48:25;9.37;99.78
68378;DHT22;55322;48.146;11.516;2023-11-19T05:50:51;9.40;99.65
68378;DHT22;55322;48.146;11.516;2023-11-19T05:53:17;9.43;99.63
68378;DHT22;55322;48.146;11.516;2023-11-19T05:55:42;9.42;99.57
68378;DHT22;55322;48.146;11.516;2023-11-19T05:58:22;9.36;99.65
68378;DHT22;55322;48.146;11.516;2023-11-19T06:00:48;9.37;99.65
68378;DHT22;55322;48.146;11.516;2023-11-19T06:03:13;9.40;99.70
68378;DHT22;55322;48.146;11.516;2023-11-19T06:05:39;9.36;99.69
68378;DHT22;55322;48.146;11.516;2023-11-19T06:08:04;9.34;99.72
68378;DHT22;55322;48.146;11.516;2023-11-19T06:10:32;9.37;99.79
68378;DHT22;55322;48.146;11.516;2023-11-19T06:12:58;9.34;99.79
68378;DHT22;55322;48.146;11.516;2023-11-19T06:15:25;9.39;99.71
68378;DHT22;55322;48.146;11.516;2023-11-19T06:17:51;9.39;99.72
68378;DHT22;55322;48.146;11.516;2023-11-19T06:20:17;9.43;99.73
68378;DHT22;55322;48.146;11.516;2023-11-19T06:22:43;9.43;99.68
68378;DHT22;55322;48.146;11.516;2023-11-19T06:25:11;9.46;99.69
68378;DHT22;55322;48.146;11.516;2023-11-19T06:27:36;9.43;99.70
68378;DHT22;55322;48.146;11.516;2023-11-19T06:30:02;9.44;99.72
68378;DHT22;55322;48.146;11.516;2023-11-19T06:32:27;9.48;99.67
68378;DHT22;55322;48.146;11.516;2023-11-19T06:34:53;9.47;99.72
68378;DHT22;55322;48.146;11.516;2023-11-19T06:37:18;9.51;99.64
68378;DHT22;55322;48.146;11.516;2023-11-19T06:39:44;9.50;99.56
68378;DHT22;55322;48.146;11.516;2023-11-19T06:42:09;9.57;99.60
68378;DHT22;55322;48.146;11.516;2023-11-19T06:44:35;9.55;99.56
68378;DHT22;55322;48.146;11.516;2023-11-19T06:47:00;9.55;99.58
68378;DHT22;55322;48.146;11.516;2023-11-19T06:49:25;9.60;99.66
68378;DHT22;55322;48.146;11.516;2023-11-19T06:51:51;9.67;99.51
68378;DHT22;55322;48.146;11.516;2023-11-19T06:54:16;9.71;99.20
68378;DHT22;55322;48.146;11.516;2023-11-19T06:56:41;9.70;99.20
68378;DHT22;55322;48.146;11.516;2023-11-19T06:59:07;9.71;99.14
68378;DHT22;55322;48.146;11.516;2023-11-19T07:01:36;9.69;99.33
68378;DHT22;55322;48.146;11.516;2023-11-19T07:04:03;9.74;99.31
68378;DHT22;55322;48.146;11.516;2023-11-19T07:06:34;9.74;99.27
68378;DHT22;55322;48.146;11.516;2023-11-19T07:09:00;9.75;99.32
68378;DHT22;55322;48.146;11.516;2023-11-19T07:11:35;9.78;99.24
68378;DHT22;55322;48.146;11.516;2023-11-19T07:14:00;9.91;98.96
68378;DHT22;55322;48.146;11.516;2023-11-19T07:16:25;9.91;98.86
68378;DHT22;55322;48.146;11.516;2023-11-19T07:18:51;9.90;98.95
68378;DHT22;55322;48.146;11.516;2023-11-19T07:21:16;9.91;98.93
68378;DHT22;55322;48.146;11.516;2023-11-19T07:23:42;9.95;98.90
68378;DHT22;55322;48.146;11.516;2023-11-19T07:26:07;10.02;98.83
68378;DHT22;55322;48.146;11.516;2023-11-19T07:28:35;10.09;98.66
68378;DHT22;55322;48.146;11.516;2023-11-19T07:31:01;10.07;98.57
68378;DHT22;55322;48.146;11.516;2023-11-19T07:33:27;10.09;98.52
68378;DHT22;55322;48.146;11.516;2023-11-19T07:35:52;10.17;98.44
68378;DHT22;55322;48.146;11.516;2023-11-19T07:38:17;10.14;98.55
68378;DHT22;55322;48.146;11.516;2023-11-19T07:40:43;10.12;98.77
68378;DHT22;55322;48.146;11.516;2023-11-19T07:43:08;10.15;98.77
68378;DHT22;55322;48.146;11.516;2023-11-19T07:45:34;10.15;98.55
68378;DHT22;55322;48.146;11.516;2023-11-19T07:47:59;10.15;98.75
68378;DHT22;55322;48.146;11.516;2023-11-19T07:50:26;10.12;98.71
68378;DHT22;55322;48.146;11.516;2023-11-19T07:52:53;10.12;98.76
68378;DHT22;55322;48.146;11.516;2023-11-19T07:55:18;10.17;98.74
68378;DHT22;55322;48.146;11.516;2023-11-19T07:57:44;10.17;98.60
68378;DHT22;55322;48.146;11.516;2023-11-19T08:00:10;10.24;98.38
68378;DHT22;55322;48.146;11.516;2023-11-19T08:02:37;10.32;97.88
68378;DHT22;55322;48.146;11.516;2023-11-19T08:05:03;10.32;98.01
68378;DHT22;55322;48.146;11.516;2023-11-19T08:07:29;10.31;98.31
68378;DHT22;55322;48.146;11.516;2023-11-19T08:09:54;10.27;98.50
68378;DHT22;55322;48.146;11.516;2023-11-19T08:12:19;10.35;98.17
68378;DHT22;55322;48.146;11.516;2023-11-19T08:14:45;10.35;98.19
68378;DHT22;55322;48.146;11.516;2023-11-19T08:17:10;10.44;97.92
68378;DHT22;55322;48.146;11.516;2023-11-19T08:19:35;10.48;98.01
68378;DHT22;55322;48.146;11.516;2023-11-19T08:22:01;10.53;97.82
68378;DHT22;55322;48.146;11.516;2023-11-19T08:24:27;10.60;97.36
68378;DHT22;55322;48.146;11.516;2023-11-19T08:26:53;10.63;97.43
68378;DHT22;55322;48.146;11.516;2023-11-19T08:29:18;10.65;97.25
68378;DHT22;55322;48.146;11.516;2023-11-19T08:31:44;10.66;97.29
68378;DHT22;55322;48.146;11.516;2023-11-19T08:34:11;10.62;97.13
68378;DHT22;55322;48.146;11.516;2023-11-19T08:36:36;10.68;97.21
68378;DHT22;55322;48.146;11.516;2023-11-19T08:39:03;10.68;97.05
68378;DHT22;55322;48.146;11.516;2023-11-19T08:41:28;10.75;96.86
68378;DHT22;55322;48.146;11.516;2023-11-19T08:43:53;10.82;96.62
68378;DHT22;55322;48.146;11.516;2023-11-19T08:46:19;10.88;96.29
68378;DHT22;55322;48.146;11.516;2023-11-19T08:48:45;10.93;96.46
68378;DHT22;55322;48.146;11.516;2023-11-19T08:51:11;10.97;96.29
68378;DHT22;55322;48.146;11.516;2023-11-19T08:53:36;11.00;96.29
68378;DHT22;55322;48.146;11.516;2023-11-19T08:56:02;11.02;96.10
68378;DHT22;55322;48.146;11.516;2023-11-19T08:58:28;11.02;96.12
68378;DHT22;55322;48.146;11.516;2023-11-19T09:00:53;11.09;95.54
68378;DHT22;55322;48.146;11.516;2023-11-19T09:03:19;11.10;95.46
68378;DHT22;55322;48.146;11.516;2023-11-19T09:05:45;11.10;95.50
68378;DHT22;55322;48.146;11.516;2023-11-19T09:08:10;11.12;95.59
68378;DHT22;55322;48.146;11.516;2023-11-19T09:10:37;11.10;95.73
68378;DHT22;55322;48.146;11.516;2023-11-19T09:13:02;11.40;96.38
68378;DHT22;55322;48.146;11.516;2023-11-19T09:15:29;11.79;96.76
68378;DHT22;55322;48.146;11.516;2023-11-19T09:17:54;11.73;94.09
68378;DHT22;55322;48.146;11.516;2023-11-19T09:20:19;11.54;94.18
68378;DHT22;55322;48.146;11.516;2023-11-19T09:22:45;11.57;93.81
68378;DHT22;55322;48.146;11.516;2023-11-19T09:25:11;11.51;94.07
68378;DHT22;55322;48.146;11.516;2023-11-19T09:27:36;11.55;93.53
68378;DHT22;55322;48.146;11.516;2023-11-19T09:30:02;11.57;93.83
68378;DHT22;55322;48.146;11.516;2023-11-19T09:32:29;11.58;93.73
68378;DHT22;55322;48.146;11.516;2023-11-19T09:34:54;11.60;93.83
68378;DHT22;55322;48.146;11.516;2023-11-19T09:37:19;11.65;93.52
68378;DHT22;55322;48.146;11.516;2023-11-19T09:39:45;11.60;93.58
68378;DHT22;55322;48.146;11.516;2023-11-19T09:42:10;11.55;93.78
68378;DHT22;55322;48.146;11.516;2023-11-19T09:44:37;11.54;94.32
68378;DHT22;55322;48.146;11.516;2023-11-19T09:47:04;11.53;94.46
68378;DHT22;55322;48.146;11.516;2023-11-19T09:49:29;11.53;94.46
68378;DHT22;55322;48.146;11.516;2023-11-19T09:51:55;11.53;94.17
68378;DHT22;55322;48.146;11.516;2023-11-19T09:54:20;11.54;94.25
68378;DHT22;55322;48.146;11.516;2023-11-19T09:56:47;11.63;94.24
68378;DHT22;55322;48.146;11.516;2023-11-19T09:59:13;11.82;93.64
68378;DHT22;55322;48.146;11.516;2023-11-19T10:01:39;11.95;93.12
68378;DHT22;55322;48.146;11.516;2023-11-19T10:04:06;12.02;92.97
68378;DHT22;55322;48.146;11.516;2023-11-19T10:06:31;12.11;92.04
68378;DHT22;55322;48.146;11.516;2023-11-19T10:08:57;12.22;92.08
68378;DHT22;55322;48.146;11.516;2023-11-19T10:11:22;12.39;92.09
68378;DHT22;55322;48.146;11.516;2023-11-19T10:13:47;12.64;90.50
68378;DHT22;55322;48.146;11.516;2023-11-19T10:16:14;12.60;89.98
68378;DHT22;55322;48.146;11.516;2023-11-19T10:18:48;12.67;89.80
68378;DHT22;55322;48.146;11.516;2023-11-19T10:21:17;12.67;89.31
68378;DHT22;55322;48.146;11.516;2023-11-19T10:26:16;14.05;85.52
68378;DHT22;55322;48.146;11.516;2023-11-19T10:28:41;14.29;84.61
68378;DHT22;55322;48.146;11.516;2023-11-19T10:31:09;14.23;84.00
68378;DHT22;55322;48.146;11.516;2023-11-19T10:33:34;14.23;83.88
68378;DHT22;55322;48.146;11.516;2023-11-19T10:36:02;14.15;83.87
68378;DHT22;55322;48.146;11.516;2023-11-19T10:38:28;14.23;83.35
68378;DHT22;55322;48.146;11.516;2023-11-19T10:40:54;14.36;83.24
68378;DHT22;55322;48.146;11.516;2023-11-19T10:43:20;14.37;83.20
68378;DHT22;55322;48.146;11.516;2023-11-19T10:45:47;14.64;83.23
68378;DHT22;55322;48.146;11.516;2023-11-19T10:48:13;15.05;80.63
68378;DHT22;55322;48.146;11.516;2023-11-19T10:50:40;15.35;80.11
68378;DHT22;55322;48.146;11.516;2023-11-19T10:53:07;15.04;79.90
68378;DHT22;55322;48.146;11.516;2023-11-19T10:55:37;14.83;80.41
68378;DHT22;55322;48.146;11.516;2023-11-19T10:58:07;14.59;80.89
68378;DHT22;55322;48.146;11.516;2023-11-19T11:00:48;14.33;81.49
68378;DHT22;55322;48.146;11.516;2023-11-19T11:03:20;14.22;82.53
68378;DHT22;55322;48.146;11.516;2023-11-19T11:05:49;14.16;82.18
68378;DHT22;55322;48.146;11.516;2023-11-19T11:08:15;14.56;81.16
68378;DHT22;55322;48.146;11.516;2023-11-19T11:10:54;14.95;80.78
68378;DHT22;55322;48.146;11.516;2023-11-19T11:13:22;15.11;78.76
68378;DHT22;55322;48.146;11.516;2023-11-19T11:15:49;14.88;79.76
68378;DHT22;55322;48.146;11.516;2023-11-19T11:18:14;14.69;80.44
68378;DHT22;55322;48.146;11.516;2023-11-19T11:20:40;14.61;80.97
68378;DHT22;55322;48.146;11.516;2023-11-19T11:26:20;15.27;79.74
68378;DHT22;55322;48.146;11.516;2023-11-19T11:28:56;15.31;78.66
68378;DHT22;55322;48.146;11.516;2023-11-19T11:31:48;15.38;78.68
68378;DHT22;55322;48.146;11.516;2023-11-19T11:37:20;15.18;78.99
68378;DHT22;55322;48.146;11.516;2023-11-19T11:39:49;15.44;78.33
68378;DHT22;55322;48.146;11.516;2023-11-19T11:45:05;15.58;76.97
68378;DHT22;55322;48.146;11.516;2023-11-19T11:50:10;15.72;76.69
68378;DHT22;55322;48.146;11.516;2023-11-19T11:57:57;15.58;76.04
68378;DHT22;55322;48.146;11.516;2023-11-19T12:00:32;15.69;76.37
68378;DHT22;55322;48.146;11.516;2023-11-19T12:03:04;15.61;76.94
68378;DHT22;55322;48.146;11.516;2023-11-19T12:05:30;15.52;76.34
68378;DHT22;55322;48.146;11.516;2023-11-19T12:07:56;15.31;76.83
68378;DHT22;55322;48.146;11.516;2023-11-19T12:10:24;15.28;76.48
68378;DHT22;55322;48.146;11.516;2023-11-19T12:12:52;15.31;77.19
68378;DHT22;55322;48.146;11.516;2023-11-19T12:15:18;15.30;77.01
68378;DHT22;55322;48.146;11.516;2023-11-19T12:17:49;15.32;76.74
68378;DHT22;55322;48.146;11.516;2023-11-19T12:20:16;15.23;76.15
68378;DHT22;55322;48.146;11.516;2023-11-19T12:22:43;15.15;76.40
68378;DHT22;55322;48.146;11.516;2023-11-19T12:25:10;15.18;76.71
68378;DHT22;55322;48.146;11.516;2023-11-19T12:27:39;15.03;75.94
68378;DHT22;55322;48.146;11.516;2023-11-19T12:30:04;14.83;76.70
68378;DHT22;55322;48.146;11.516;2023-11-19T12:32:43;14.74;76.77
68378;DHT22;55322;48.146;11.516;2023-11-19T12:35:10;14.64;77.35
68378;DHT22;55322;48.146;11.516;2023-11-19T12:37:47;14.49;77.93
68378;DHT22;55322;48.146;11.516;2023-11-19T12:42:46;14.76;76.85
68378;DHT22;55322;48.146;11.516;2023-11-19T12:45:12;14.80;76.46
68378;DHT22;55322;48.146;11.516;2023-11-19T12:47:39;14.71;77.01
68378;DHT22;55322;48.146;11.516;2023-11-19T12:50:06;14.93;76.92
68378;DHT22;55322;48.146;11.516;2023-11-19T12:52:32;14.95;77.19
68378;DHT22;55322;48.146;11.516;2023-11-19T12:54:58;14.87;76.52
68378;DHT22;55322;48.146;11.516;2023-11-19T12:57:39;14.77;76.61
68378;DHT22;55322;48.146;11.516;2023-11-19T13:00:06;14.80;76.82
68378;DHT22;55322;48.146;11.516;2023-11-19T13:02:45;14.81;76.63
68378;DHT22;55322;48.146;11.516;2023-11-19T13:05:31;14.73;76.88
68378;DHT22;55322;48.146;11.516;2023-11-19T13:08:02;14.50;77.27
68378;DHT22;55322;48.146;11.516;2023-11-19T13:10:28;14.39;77.43
68378;DHT22;55322;48.146;11.516;2023-11-19T13:13:20;14.18;78.35
68378;DHT22;55322;48.146;11.516;2023-11-19T13:15:45;14.09;78.06
68378;DHT22;55322;48.146;11.516;2023-11-19T13:18:11;14.05;78.79
68378;DHT22;55322;48.146;11.516;2023-11-19T13:20:37;13.92;79.40
68378;DHT22;55322;48.146;11.516;2023-11-19T13:23:04;13.90;79.99
68378;DHT22;55322;48.146;11.516;2023-11-19T13:25:30;13.88;79.88
68378;DHT22;55322;48.146;11.516;2023-11-19T13:27:56;13.95;79.38
68378;DHT22;55322;48.146;11.516;2023-11-19T13:30:22;13.92;79.71
68378;DHT22;55322;48.146;11.516;2023-11-19T13:32:48;13.92;80.65
68378;DHT22;55322;48.146;11.516;2023-11-19T13:35:14;13.90;79.91
68378;DHT22;55322;48.146;11.516;2023-11-19T13:37:40;13.88;80.31
68378;DHT22;55322;48.146;11.516;2023-11-19T13:40:09;13.74;80.29
68378;DHT22;55322;48.146;11.516;2023-11-19T13:42:36;13.62;80.89
68378;DHT22;55322;48.146;11.516;2023-11-19T13:45:09;13.58;80.83
68378;DHT22;55322;48.146;11.516;2023-11-19T13:47:38;13.51;81.73
68378;DHT22;55322;48.146;11.516;2023-11-19T13:50:07;13.44;82.19
68378;DHT22;55322;48.146;11.516;2023-11-19T13:52:33;13.37;82.24
68378;DHT22;55322;48.146;11.516;2023-11-19T13:54:58;13.31;82.59
68378;DHT22;55322;48.146;11.516;2023-11-19T13:57:23;13.30;83.01
68378;DHT22;55322;48.146;11.516;2023-11-19T13:59:49;13.30;82.64
68378;DHT22;55322;48.146;11.516;2023-11-19T14:02:14;13.35;82.02
68378;DHT22;55322;48.146;11.516;2023-11-19T14:04:39;13.27;82.89
68378;DHT22;55322;48.146;11.516;2023-11-19T14:07:05;13.24;82.86
68378;DHT22;55322;48.146;11.516;2023-11-19T14:09:30;13.24;83.03
68378;DHT22;55322;48.146;11.516;2023-11-19T14:11:55;13.30;82.92
68378;DHT22;55322;48.146;11.516;2023-11-19T14:14:21;13.41;85.13
68378;DHT22;55322;48.146;11.516;2023-11-19T14:16:46;13.40;82.88
68378;DHT22;55322;48.146;11.516;2023-11-19T14:19:11;13.34;83.04
68378;DHT22;55322;48.146;11.516;2023-11-19T14:21:37;13.30;83.10
68378;DHT22;55322;48.146;11.516;2023-11-19T14:24:02;13.24;83.85
68378;DHT22;55322;48.146;11.516;2023-11-19T14:26:28;13.18;83.77
68378;DHT22;55322;48.146;11.516;2023-11-19T14:28:53;13.15;83.80
68378;DHT22;55322;48.146;11.516;2023-11-19T14:31:18;13.24;83.22
68378;DHT22;55322;48.146;11.516;2023-11-19T14:33:44;13.17;83.07
68378;DHT22;55322;48.146;11.516;2023-11-19T14:36:09;13.13;83.36
68378;DHT22;55322;48.146;11.516;2023-11-19T14:38:35;13.13;83.17
68378;DHT22;55322;48.146;11.516;2023-11-19T14:41:00;13.20;82.63
68378;DHT22;55322;48.146;11.516;2023-11-19T14:43:25;13.20;82.89
68378;DHT22;55322;48.146;11.516;2023-11-19T14:45:51;13.13;83.10
68378;DHT22;55322;48.146;11.516;2023-11-19T14:48:17;13.04;83.37
68378;DHT22;55322;48.146;11.516;2023-11-19T14:50:46;13.03;83.47
68378;DHT22;55322;48.146;11.516;2023-11-19T14:53:11;12.92;83.48
68378;DHT22;55322;48.146;11.516;2023-11-19T14:55:36;12.84;83.68
68378;DHT22;55322;48.146;11.516;2023-11-19T14:58:02;12.79;83.61
68378;DHT22;55322;48.146;11.516;2023-11-19T15:00:27;12.67;84.06
68378;DHT22;55322;48.146;11.516;2023-11-19T15:02:53;12.66;83.64
68378;DHT22;55322;48.146;11.516;2023-11-19T15:05:18;12.60;84.05
68378;DHT22;55322;48.146;11.516;2023-11-19T15:07:45;12.57;84.44
68378;DHT22;55322;48.146;11.516;2023-11-19T15:10:10;12.49;84.31
68378;DHT22;55322;48.146;11.516;2023-11-19T15:12:38;12.39;84.65
68378;DHT22;55322;48.146;11.516;2023-11-19T15:15:06;12.35;84.74
68378;DHT22;55322;48.146;11.516;2023-11-19T15:17:32;12.38;84.57
68378;DHT22;55322;48.146;11.516;2023-11-19T15:19:57;12.25;85.00
68378;DHT22;55322;48.146;11.516;2023-11-19T15:22:23;12.18;85.39
68378;DHT22;55322;48.146;11.516;2023-11-19T15:24:48;12.08;85.60
68378;DHT22;55322;48.146;11.516;2023-11-19T15:27:14;11.99;85.91
68378;DHT22;55322;48.146;11.516;2023-11-19T15:29:39;11.84;86.83
68378;DHT22;55322;48.146;11.516;2023-11-19T15:32:05;11.89;86.58
68378;DHT22;55322;48.146;11.516;2023-11-19T15:34:32;11.87;86.51
68378;DHT22;55322;48.146;11.516;2023-11-19T15:36:58;11.79;86.76
68378;DHT22;55322;48.146;11.516;2023-11-19T15:39:25;11.77;86.99
68378;DHT22;55322;48.146;11.516;2023-11-19T15:41:52;11.70;87.27